createdAt,value
2023-05-17T00:02:06.762Z,5.40
2023-05-17T00:04:53.786Z,3.47
2023-05-17T00:07:40.795Z,5.18
2023-05-17T00:10:27.646Z,4.93
2023-05-17T00:13:14.568Z,3.70
2023-05-17T00:16:01.441Z,6.63
2023-05-17T00:18:48.419Z,4.53
2023-05-17T00:21:36.029Z,4.95
2023-05-17T00:24:22.882Z,5.20
2023-05-17T00:27:10.216Z,5.18
2023-05-17T00:29:57.164Z,3.92
2023-05-17T00:32:46.825Z,5.15
2023-05-17T00:35:33.945Z,5.82
2023-05-17T00:38:20.820Z,2.90
2023-05-17T00:41:07.668Z,6.47
2023-05-17T00:43:54.562Z,4.70
2023-05-17T00:46:41.901Z,4.72
2023-05-17T00:49:29.256Z,4.00
2023-05-17T00:52:16.303Z,4.75
2023-05-17T00:55:04.999Z,4.85
2023-05-17T00:57:51.876Z,5.25
2023-05-17T01:00:38.806Z,4.55
2023-05-17T01:03:25.825Z,4.47
2023-05-17T01:06:12.725Z,3.65
2023-05-17T01:08:59.598Z,4.57
2023-05-17T01:12:11.256Z,4.63
2023-05-17T01:15:03.467Z,3.85
2023-05-17T01:17:56.458Z,5.03
2023-05-17T01:20:44.253Z,4.20
2023-05-17T01:23:43.513Z,4.85
2023-05-17T01:26:50.266Z,5.13
2023-05-17T01:29:38.494Z,4.72
2023-05-17T01:32:26.101Z,5.13
2023-05-17T01:35:13.223Z,4.10
2023-05-17T01:38:00.109Z,4.68
2023-05-17T01:41:06.220Z,4.40
2023-05-17T01:44:28.646Z,3.80
2023-05-17T01:47:40.600Z,2.97
2023-05-17T01:50:29.593Z,4.28
2023-05-17T01:56:10.878Z,4.30
2023-05-17T01:58:59.327Z,2.47
2023-05-17T02:01:47.437Z,4.28
2023-05-17T02:04:37.889Z,3.63
2023-05-17T02:07:24.833Z,4.05
2023-05-17T02:10:12.001Z,5.72
2023-05-17T02:12:58.859Z,3.92
2023-05-17T02:15:45.748Z,3.92
2023-05-17T02:18:35.474Z,4.03
2023-05-17T02:21:22.512Z,2.22
2023-05-17T02:24:09.503Z,4.00
2023-05-17T02:26:56.414Z,4.78
2023-05-17T02:29:43.291Z,4.13
2023-05-17T02:32:31.051Z,4.10
2023-05-17T02:35:18.071Z,3.65
2023-05-17T02:38:05.231Z,3.13
2023-05-17T02:40:52.135Z,4.05
2023-05-17T02:43:38.965Z,4.05
2023-05-17T02:46:26.346Z,3.55
2023-05-17T02:49:13.217Z,5.05
2023-05-17T02:52:00.855Z,5.43
2023-05-17T02:54:48.136Z,4.25
2023-05-17T02:57:34.990Z,4.90
2023-05-17T03:00:21.929Z,4.55
2023-05-17T03:03:08.798Z,4.15
2023-05-17T03:05:55.752Z,3.40
2023-05-17T03:08:42.662Z,3.78
2023-05-17T03:11:29.576Z,3.05
2023-05-17T03:14:16.580Z,3.75
2023-05-17T03:17:03.422Z,3.90
2023-05-17T03:19:50.908Z,5.72
2023-05-17T03:22:37.838Z,5.75
2023-05-17T03:25:24.700Z,3.15
2023-05-17T03:28:11.595Z,3.40
2023-05-17T03:30:58.464Z,4.07
2023-05-17T03:33:46.004Z,3.50
2023-05-17T03:36:34.580Z,3.83
2023-05-17T03:39:21.466Z,3.08
2023-05-17T03:42:08.325Z,3.33
2023-05-17T03:44:55.269Z,3.72
2023-05-17T03:47:43.223Z,6.47
2023-05-17T03:50:32.617Z,4.85
2023-05-17T03:53:19.496Z,3.95
2023-05-17T03:56:06.644Z,3.42
2023-05-17T03:58:53.712Z,5.10
2023-05-17T04:01:41.846Z,3.80
2023-05-17T04:04:28.792Z,5.13
2023-05-17T04:07:15.890Z,4.85
2023-05-17T04:10:03.333Z,3.67
2023-05-17T04:12:50.194Z,3.60
2023-05-17T04:15:37.044Z,4.97
2023-05-17T04:18:24.119Z,6.32
2023-05-17T04:21:11.473Z,3.10
2023-05-17T04:23:58.307Z,4.63
2023-05-17T04:26:45.232Z,3.90
2023-05-17T04:29:32.081Z,2.25
2023-05-17T04:32:18.973Z,2.92
2023-05-17T04:35:06.152Z,4.10
2023-05-17T04:37:55.665Z,3.70
2023-05-17T04:40:42.587Z,3.95
2023-05-17T04:43:29.437Z,4.00
2023-05-17T04:46:16.640Z,4.50
2023-05-17T04:49:03.967Z,4.18
2023-05-17T04:51:50.964Z,4.22
2023-05-17T04:54:37.815Z,4.72
2023-05-17T04:57:24.637Z,6.18
2023-05-17T05:00:12.197Z,4.57
2023-05-17T05:02:59.074Z,3.45
2023-05-17T05:05:45.985Z,6.18
2023-05-17T05:08:33.567Z,5.10
2023-05-17T05:11:20.396Z,3.97
2023-05-17T05:14:07.229Z,4.53
2023-05-17T05:16:55.729Z,5.20
2023-05-17T05:19:42.721Z,3.72
2023-05-17T05:22:29.668Z,3.30
2023-05-17T05:25:17.090Z,4.50
2023-05-17T05:28:04.011Z,4.55
2023-05-17T05:30:50.862Z,5.95
2023-05-17T05:33:37.821Z,4.47
2023-05-17T05:36:24.751Z,4.47
2023-05-17T05:39:12.643Z,2.60
2023-05-17T05:41:59.495Z,4.35
2023-05-17T05:44:46.344Z,3.08
2023-05-17T05:47:33.251Z,3.75
2023-05-17T05:50:20.228Z,4.57
2023-05-17T05:53:18.237Z,4.78
2023-05-17T05:56:06.673Z,4.32
2023-05-17T05:58:57.401Z,3.72
2023-05-17T06:01:44.375Z,5.28
2023-05-17T06:04:43.839Z,5.05
2023-05-17T06:07:31.822Z,6.57
2023-05-17T06:10:18.744Z,4.88
2023-05-17T06:13:05.664Z,6.78
2023-05-17T06:15:52.609Z,5.07
2023-05-17T06:18:39.530Z,5.13
2023-05-17T06:21:26.421Z,5.53
2023-05-17T06:24:13.270Z,6.32
2023-05-17T06:27:00.131Z,7.00
2023-05-17T06:29:46.967Z,5.15
2023-05-17T06:32:33.815Z,6.13
2023-05-17T06:35:20.708Z,5.75
2023-05-17T06:38:07.582Z,7.07
2023-05-17T06:40:55.706Z,5.65
2023-05-17T06:43:42.545Z,5.43
2023-05-17T06:46:29.408Z,6.10
2023-05-17T06:49:16.324Z,5.03
2023-05-17T06:52:05.672Z,4.68
2023-05-17T06:54:52.856Z,6.28
2023-05-17T06:57:39.719Z,5.93
2023-05-17T07:00:26.712Z,6.07
2023-05-17T07:03:13.888Z,6.35
2023-05-17T07:06:01.274Z,6.72
2023-05-17T07:08:48.129Z,6.30
2023-05-17T07:11:34.986Z,6.35
2023-05-17T07:14:21.830Z,8.90
2023-05-17T07:17:08.680Z,7.68
2023-05-17T07:19:56.004Z,6.90
2023-05-17T07:22:43.281Z,6.63
2023-05-17T07:25:30.427Z,6.47
2023-05-17T07:28:17.515Z,5.88
2023-05-17T07:31:04.407Z,7.60
2023-05-17T07:33:51.308Z,8.18
2023-05-17T07:36:38.335Z,7.03
2023-05-17T07:39:25.164Z,6.85
2023-05-17T07:42:12.047Z,6.82
2023-05-17T07:44:58.886Z,7.40
2023-05-17T07:47:46.341Z,7.72
2023-05-17T07:50:33.534Z,8.57
2023-05-17T07:53:20.434Z,6.90
2023-05-17T07:56:07.432Z,8.15
2023-05-17T07:58:54.246Z,6.50
2023-05-17T08:01:41.145Z,6.32
2023-05-17T08:04:28.074Z,6.65
2023-05-17T08:07:14.986Z,6.93
2023-05-17T08:10:02.024Z,7.43
2023-05-17T08:12:48.897Z,7.10
2023-05-17T08:15:36.095Z,6.82
2023-05-17T08:18:23.125Z,6.60
2023-05-17T08:21:11.134Z,7.97
2023-05-17T08:23:58.107Z,7.25
2023-05-17T08:26:44.966Z,7.65
2023-05-17T08:29:31.871Z,5.57
2023-05-17T08:32:18.748Z,6.97
2023-05-17T08:35:05.934Z,6.40
2023-05-17T08:37:52.839Z,7.07
2023-05-17T08:40:39.683Z,7.90
2023-05-17T08:43:27.919Z,7.72
2023-05-17T08:46:15.976Z,7.95
2023-05-17T08:49:04.110Z,8.20
2023-05-17T08:51:53.918Z,6.82
2023-05-17T08:54:41.111Z,7.97
2023-05-17T08:57:28.756Z,7.20
2023-05-17T09:00:16.866Z,7.30
2023-05-17T09:03:04.102Z,6.33
2023-05-17T09:05:52.908Z,7.05
2023-05-17T09:08:40.581Z,8.18
2023-05-17T09:11:34.754Z,8.18
2023-05-17T09:14:21.588Z,7.95
2023-05-17T09:17:08.570Z,7.35
2023-05-17T09:19:56.279Z,6.35
2023-05-17T09:22:44.230Z,6.70
2023-05-17T09:25:31.765Z,7.05
2023-05-17T09:28:21.960Z,7.95
2023-05-17T09:31:09.315Z,6.60
2023-05-17T09:33:59.281Z,7.82
2023-05-17T09:36:46.215Z,6.82
2023-05-17T09:39:33.164Z,6.93
2023-05-17T09:42:26.427Z,7.53
2023-05-17T09:45:14.522Z,8.05
2023-05-17T09:48:18.008Z,6.37
2023-05-17T09:51:06.174Z,7.38
2023-05-17T09:53:54.311Z,8.80
2023-05-17T09:56:41.413Z,6.83
2023-05-17T09:59:29.153Z,7.47
2023-05-17T10:02:27.435Z,6.68
2023-05-17T10:05:15.372Z,6.50
2023-05-17T10:08:03.833Z,6.63
2023-05-17T10:10:51.260Z,6.05
2023-05-17T10:13:49.713Z,6.07
2023-05-17T10:16:38.019Z,7.88
2023-05-17T10:19:25.787Z,7.70
2023-05-17T10:25:06.061Z,7.05
2023-05-17T10:27:53.013Z,8.10
2023-05-17T10:30:40.822Z,6.43
2023-05-17T10:33:28.042Z,7.75
2023-05-17T10:36:17.494Z,6.38
2023-05-17T10:39:07.963Z,7.18
2023-05-17T10:42:10.760Z,6.25
2023-05-17T10:45:01.594Z,6.47
2023-05-17T10:47:54.072Z,6.30
2023-05-17T10:50:54.104Z,8.35
2023-05-17T10:54:14.153Z,6.43
2023-05-17T10:57:06.450Z,6.88
2023-05-17T10:59:59.426Z,6.20
2023-05-17T11:02:48.900Z,7.57
2023-05-17T11:05:36.166Z,6.38
2023-05-17T11:08:23.144Z,7.07
2023-05-17T11:11:17.290Z,6.75
2023-05-17T11:14:05.449Z,6.00
2023-05-17T11:16:58.078Z,7.35
2023-05-17T11:19:54.755Z,7.45
2023-05-17T11:22:51.602Z,7.50
2023-05-17T11:25:40.378Z,7.15
2023-05-17T11:28:27.258Z,7.72
2023-05-17T11:31:14.427Z,7.30
2023-05-17T11:34:03.788Z,7.90
2023-05-17T11:36:53.066Z,7.75
2023-05-17T11:40:06.824Z,7.82
2023-05-17T11:43:15.987Z,7.00
2023-05-17T11:46:06.310Z,6.57
2023-05-17T11:48:53.966Z,7.35
2023-05-17T11:51:41.314Z,7.03
2023-05-17T11:54:28.509Z,6.82
2023-05-17T11:57:17.751Z,8.80
2023-05-17T12:00:06.491Z,8.02
2023-05-17T12:02:53.679Z,7.93
2023-05-17T12:05:40.754Z,7.45
2023-05-17T12:08:27.723Z,8.38
2023-05-17T12:11:15.753Z,6.25
2023-05-17T12:14:03.007Z,6.93
2023-05-17T12:16:53.774Z,7.88
2023-05-17T12:19:40.850Z,7.00
2023-05-17T12:22:27.936Z,6.68
2023-05-17T12:25:23.472Z,6.63
2023-05-17T12:28:15.995Z,7.00
2023-05-17T12:31:03.868Z,6.65
2023-05-17T12:33:51.046Z,6.43
2023-05-17T12:36:38.321Z,6.43
2023-05-17T12:39:25.288Z,7.22
2023-05-17T12:42:12.460Z,6.43
2023-05-17T12:45:00.347Z,6.40
2023-05-17T12:47:50.880Z,5.23
2023-05-17T12:50:37.855Z,5.18
2023-05-17T12:53:25.952Z,5.93
2023-05-17T12:56:18.629Z,6.45
2023-05-17T12:59:17.327Z,6.68
2023-05-17T13:04:51.179Z,6.90
2023-05-17T13:07:38.102Z,6.78
2023-05-17T13:10:26.628Z,6.80
2023-05-17T13:13:19.485Z,4.95
2023-05-17T13:16:06.677Z,7.15
2023-05-17T13:18:55.477Z,5.78
2023-05-17T13:24:31.400Z,7.05
2023-05-17T13:27:18.317Z,5.65
2023-05-17T13:30:05.673Z,5.82
2023-05-17T13:32:54.453Z,5.72
2023-05-17T13:38:28.275Z,5.95
2023-05-17T13:41:15.713Z,6.93
2023-05-17T13:44:02.583Z,6.22
2023-05-17T13:46:49.452Z,5.82
2023-05-17T13:49:37.254Z,5.97
2023-05-17T13:52:25.256Z,6.38
2023-05-17T13:55:12.283Z,6.47
2023-05-17T13:57:59.132Z,4.95
2023-05-17T14:00:46.172Z,5.28
2023-05-17T14:03:33.095Z,7.35
2023-05-17T14:06:20.133Z,6.55
2023-05-17T14:09:07.036Z,7.13
2023-05-17T14:11:53.878Z,7.70
2023-05-17T14:14:40.744Z,6.00
2023-05-17T14:17:27.663Z,6.43
2023-05-17T14:20:14.767Z,7.55
2023-05-17T14:23:02.073Z,6.65
2023-05-17T14:25:51.773Z,7.28
2023-05-17T14:28:39.083Z,5.88
2023-05-17T14:31:28.163Z,6.05
2023-05-17T14:34:15.023Z,6.00
2023-05-17T14:37:02.233Z,5.97
2023-05-17T14:40:05.344Z,6.55
2023-05-17T14:42:53.561Z,5.97
2023-05-17T14:45:40.554Z,6.28
2023-05-17T14:48:27.421Z,7.63
2023-05-17T14:51:14.334Z,6.65
2023-05-17T14:54:01.644Z,5.18
2023-05-17T14:56:49.047Z,5.90
2023-05-17T14:59:36.015Z,5.20
2023-05-17T15:02:22.987Z,6.38
2023-05-17T15:05:10.641Z,7.30
2023-05-17T15:07:57.730Z,6.70
2023-05-17T15:10:44.542Z,6.85
2023-05-17T15:13:31.473Z,6.38
2023-05-17T15:16:21.285Z,8.85
2023-05-17T15:19:08.312Z,7.03
2023-05-17T15:21:55.659Z,8.02
2023-05-17T15:24:46.108Z,7.18
2023-05-17T15:27:33.117Z,5.72
2023-05-17T15:30:20.513Z,7.07
2023-05-17T15:33:08.248Z,6.00
2023-05-17T15:35:55.123Z,6.63
2023-05-17T15:38:41.967Z,6.70
2023-05-17T15:41:31.189Z,7.18
2023-05-17T15:44:18.761Z,6.55
2023-05-17T15:47:05.635Z,5.28
2023-05-17T15:49:52.508Z,6.55
2023-05-17T15:52:39.406Z,5.88
2023-05-17T15:55:26.379Z,6.50
2023-05-17T15:58:13.250Z,5.82
2023-05-17T16:01:03.990Z,5.82
2023-05-17T16:03:51.075Z,7.15
2023-05-17T16:06:38.290Z,5.93
2023-05-17T16:09:25.765Z,5.18
2023-05-17T16:12:12.836Z,7.07
2023-05-17T16:15:00.279Z,6.50
2023-05-17T16:17:51.242Z,5.63
2023-05-17T16:20:38.516Z,5.75
2023-05-17T16:23:25.654Z,6.13
2023-05-17T16:26:13.360Z,8.35
2023-05-17T16:29:01.051Z,5.47
2023-05-17T16:31:48.300Z,5.65
2023-05-17T16:34:36.498Z,6.88
2023-05-17T16:37:23.449Z,5.63
2023-05-17T16:40:11.094Z,5.50
2023-05-17T16:42:58.008Z,6.93
2023-05-17T16:45:45.175Z,6.10
2023-05-17T16:48:32.431Z,5.35
2023-05-17T16:51:19.501Z,6.75
2023-05-17T16:54:06.439Z,6.75
2023-05-17T16:56:53.257Z,7.53
2023-05-17T16:59:40.134Z,8.80
2023-05-17T17:02:27.803Z,6.25
2023-05-17T17:05:14.960Z,6.22
2023-05-17T17:08:02.045Z,5.85
2023-05-17T17:10:48.999Z,6.00
2023-05-17T17:13:35.919Z,6.68
2023-05-17T17:16:22.948Z,7.20
2023-05-17T17:19:10.111Z,7.18
2023-05-17T17:21:57.485Z,6.43
2023-05-17T17:24:44.583Z,5.88
2023-05-17T17:27:31.805Z,6.70
2023-05-17T17:30:18.695Z,6.90
2023-05-17T17:33:05.654Z,6.22
2023-05-17T17:35:52.526Z,7.00
2023-05-17T17:38:41.672Z,7.07
2023-05-17T17:41:28.756Z,6.47
2023-05-17T17:44:15.951Z,5.70
2023-05-17T17:47:02.948Z,6.20
2023-05-17T17:49:49.879Z,7.20
2023-05-17T17:52:37.416Z,6.28
2023-05-17T17:55:24.498Z,6.55
2023-05-17T17:58:11.536Z,7.00
2023-05-17T18:00:58.449Z,7.38
2023-05-17T18:03:45.482Z,6.05
2023-05-17T18:06:32.347Z,6.35
2023-05-17T18:09:19.225Z,7.03
2023-05-17T18:12:06.316Z,7.13
2023-05-17T18:14:53.739Z,7.85
2023-05-17T18:17:41.075Z,6.22
2023-05-17T18:20:28.185Z,5.22
2023-05-17T18:23:15.311Z,6.15
2023-05-17T18:26:02.897Z,5.97
2023-05-17T18:28:50.298Z,6.78
2023-05-17T18:31:37.363Z,6.00
2023-05-17T18:34:25.585Z,5.75
2023-05-17T18:37:12.540Z,5.88
2023-05-17T18:40:01.831Z,5.05
2023-05-17T18:42:49.212Z,7.20
2023-05-17T18:45:36.574Z,8.00
2023-05-17T18:48:27.744Z,5.80
2023-05-17T18:51:15.795Z,6.28
2023-05-17T18:54:03.725Z,6.97
2023-05-17T18:56:50.577Z,7.33
2023-05-17T18:59:38.069Z,7.78
2023-05-17T19:02:24.998Z,7.78
2023-05-17T19:05:11.994Z,6.78
2023-05-17T19:07:59.165Z,6.10
2023-05-17T19:10:46.077Z,6.55
2023-05-17T19:13:33.145Z,8.50
2023-05-17T19:16:20.038Z,7.97
2023-05-17T19:19:08.237Z,8.50
2023-05-17T19:21:55.263Z,11.00
2023-05-17T19:24:42.151Z,10.82
2023-05-17T19:27:29.406Z,10.68
2023-05-17T19:30:16.299Z,9.52
2023-05-17T19:33:03.738Z,10.57
2023-05-17T19:35:50.681Z,7.65
2023-05-17T19:38:37.570Z,9.23
2023-05-17T19:41:24.397Z,8.32
2023-05-17T19:44:11.661Z,9.00
2023-05-17T19:46:58.507Z,10.98
2023-05-17T19:49:45.452Z,8.82
2023-05-17T19:52:32.299Z,9.13
2023-05-17T19:55:22.205Z,8.20
2023-05-17T19:58:09.134Z,7.80
2023-05-17T20:00:56.286Z,9.23
2023-05-17T20:03:43.297Z,8.50
2023-05-17T20:06:30.218Z,8.60
2023-05-17T20:09:17.176Z,8.30
2023-05-17T20:12:04.748Z,8.50
2023-05-17T20:14:54.737Z,7.72
2023-05-17T20:17:42.033Z,8.75
2023-05-17T20:20:29.264Z,8.73
2023-05-17T20:23:16.625Z,7.60
2023-05-17T20:26:03.886Z,8.20
2023-05-17T20:28:50.878Z,8.93
2023-05-17T20:31:37.885Z,8.90
2023-05-17T20:34:28.370Z,8.77
2023-05-17T20:37:15.367Z,7.32
2023-05-17T20:40:04.771Z,11.02
2023-05-17T20:42:52.971Z,8.95
2023-05-17T20:45:40.181Z,8.18
2023-05-17T20:48:27.066Z,8.68
2023-05-17T20:51:14.537Z,6.80
2023-05-17T20:54:01.381Z,7.57
2023-05-17T20:56:48.426Z,8.05
2023-05-17T20:59:36.651Z,7.78
2023-05-17T21:02:24.975Z,9.00
2023-05-17T21:05:11.925Z,10.30
2023-05-17T21:07:59.735Z,6.57
2023-05-17T21:10:47.044Z,7.63
2023-05-17T21:13:33.890Z,7.60
2023-05-17T21:16:20.833Z,6.97
2023-05-17T21:19:08.825Z,7.07
2023-05-17T21:21:55.777Z,6.88
2023-05-17T21:24:42.667Z,7.72
2023-05-17T21:27:29.700Z,7.38
2023-05-17T21:30:16.652Z,9.00
2023-05-17T21:33:05.187Z,7.70
2023-05-17T21:35:52.127Z,6.57
2023-05-17T21:38:39.012Z,8.10
2023-05-17T21:41:25.926Z,7.90
2023-05-17T21:44:12.782Z,8.88
2023-05-17T21:46:59.791Z,7.28
2023-05-17T21:49:49.763Z,6.43
2023-05-17T21:52:36.835Z,7.68
2023-05-17T21:55:23.746Z,6.63
2023-05-17T21:58:10.733Z,7.78
2023-05-17T22:00:58.212Z,8.63
2023-05-17T22:03:46.266Z,6.22
2023-05-17T22:06:33.231Z,8.80
2023-05-17T22:09:20.124Z,6.63
2023-05-17T22:12:08.401Z,6.35
2023-05-17T22:14:56.467Z,7.53
2023-05-17T22:17:51.842Z,7.90
2023-05-17T22:20:39.782Z,7.80
2023-05-17T22:23:27.223Z,5.53
2023-05-17T22:26:14.109Z,6.22
2023-05-17T22:29:01.237Z,7.03
2023-05-17T22:31:50.038Z,7.40
2023-05-17T22:34:38.259Z,6.43
2023-05-17T22:37:25.188Z,6.83
2023-05-17T22:40:12.872Z,7.90
2023-05-17T22:43:00.268Z,6.95
2023-05-17T22:45:47.508Z,7.22
2023-05-17T22:48:37.210Z,7.47
2023-05-17T22:51:24.402Z,7.30
2023-05-17T22:54:11.333Z,7.50
2023-05-17T22:56:58.237Z,9.07
2023-05-17T22:59:45.052Z,7.80
2023-05-17T23:02:32.715Z,6.47
2023-05-17T23:05:19.630Z,6.82
2023-05-17T23:08:07.914Z,6.72
2023-05-17T23:10:55.587Z,7.90
2023-05-17T23:13:42.448Z,9.95
2023-05-17T23:16:29.304Z,7.13
2023-05-17T23:19:17.170Z,7.95
2023-05-17T23:22:06.395Z,8.60
2023-05-17T23:24:54.067Z,8.45
2023-05-17T23:27:41.449Z,7.30
2023-05-17T23:30:29.685Z,6.75
2023-05-17T23:33:18.882Z,8.50
2023-05-17T23:36:06.339Z,7.15
2023-05-17T23:38:53.182Z,7.00
2023-05-17T23:41:40.060Z,7.80
2023-05-17T23:44:27.035Z,6.60
2023-05-17T23:47:13.850Z,7.65
2023-05-17T23:50:01.103Z,6.82
2023-05-17T23:52:47.963Z,8.63
2023-05-17T23:55:34.980Z,7.35
2023-05-17T23:58:21.834Z,6.53
